sensor_id;sensor_type;location;lat;lon;timestamp;temperature;humidity
774;DHT22;370;48.810;9.150;2023-06-10T00:00:15;16.40;10.70
774;DHT22;370;48.810;9.150;2023-06-10T00:02:42;16.50;10.80
774;DHT22;370;48.810;9.150;2023-06-10T00:05:10;16.40;10.50
774;DHT22;370;48.810;9.150;2023-06-10T00:07:37;16.40;10.80
774;DHT22;370;48.810;9.150;2023-06-10T00:10:04;16.30;11.90
774;DHT22;370;48.810;9.150;2023-06-10T00:12:31;16.30;11.90
774;DHT22;370;48.810;9.150;2023-06-10T00:15:02;16.30;12.00
774;DHT22;370;48.810;9.150;2023-06-10T00:17:29;16.30;12.80
774;DHT22;370;48.810;9.150;2023-06-10T00:19:56;16.30;12.90
774;DHT22;370;48.810;9.150;2023-06-10T00:22:24;16.30;13.00
774;DHT22;370;48.810;9.150;2023-06-10T00:24:54;16.20;13.60
774;DHT22;370;48.810;9.150;2023-06-10T00:27:21;16.20;13.70
774;DHT22;370;48.810;9.150;2023-06-10T00:29:48;16.10;13.30
774;DHT22;370;48.810;9.150;2023-06-10T00:32:15;16.10;13.40
774;DHT22;370;48.810;9.150;2023-06-10T00:34:41;16.10;13.30
774;DHT22;370;48.810;9.150;2023-06-10T00:37:08;16.10;13.60
774;DHT22;370;48.810;9.150;2023-06-10T00:39:36;16.00;13.80
774;DHT22;370;48.810;9.150;2023-06-10T00:42:03;16.00;14.00
774;DHT22;370;48.810;9.150;2023-06-10T00:44:32;15.90;14.50
774;DHT22;370;48.810;9.150;2023-06-10T00:46:59;15.90;14.50
774;DHT22;370;48.810;9.150;2023-06-10T00:49:25;15.90;14.90
774;DHT22;370;48.810;9.150;2023-06-10T00:51:53;15.80;15.20
774;DHT22;370;48.810;9.150;2023-06-10T00:54:20;15.80;15.60
774;DHT22;370;48.810;9.150;2023-06-10T00:56:49;15.80;16.40
774;DHT22;370;48.810;9.150;2023-06-10T00:59:16;15.80;16.80
774;DHT22;370;48.810;9.150;2023-06-10T01:01:44;15.70;17.70
774;DHT22;370;48.810;9.150;2023-06-10T01:04:12;15.70;17.70
774;DHT22;370;48.810;9.150;2023-06-10T01:06:47;15.60;17.60
774;DHT22;370;48.810;9.150;2023-06-10T01:09:23;15.60;18.10
774;DHT22;370;48.810;9.150;2023-06-10T01:11:59;15.60;18.70
774;DHT22;370;48.810;9.150;2023-06-10T01:14:29;15.60;19.30
774;DHT22;370;48.810;9.150;2023-06-10T01:16:57;15.60;19.60
774;DHT22;370;48.810;9.150;2023-06-10T01:19:25;15.50;19.70
774;DHT22;370;48.810;9.150;2023-06-10T01:21:55;15.50;19.40
774;DHT22;370;48.810;9.150;2023-06-10T01:24:22;15.40;19.70
774;DHT22;370;48.810;9.150;2023-06-10T01:26:50;15.40;21.20
774;DHT22;370;48.810;9.150;2023-06-10T01:29:20;15.40;21.90
774;DHT22;370;48.810;9.150;2023-06-10T01:31:51;15.40;21.50
774;DHT22;370;48.810;9.150;2023-06-10T01:34:21;15.30;21.90
774;DHT22;370;48.810;9.150;2023-06-10T01:36:50;15.30;22.40
774;DHT22;370;48.810;9.150;2023-06-10T01:39:23;15.30;23.00
774;DHT22;370;48.810;9.150;2023-06-10T01:41:51;15.20;23.80
774;DHT22;370;48.810;9.150;2023-06-10T01:44:18;15.20;23.70
774;DHT22;370;48.810;9.150;2023-06-10T01:46:46;15.20;23.60
774;DHT22;370;48.810;9.150;2023-06-10T01:49:12;15.10;24.40
774;DHT22;370;48.810;9.150;2023-06-10T01:51:40;15.10;24.40
774;DHT22;370;48.810;9.150;2023-06-10T01:54:06;15.10;23.90
774;DHT22;370;48.810;9.150;2023-06-10T01:56:34;15.10;24.00
774;DHT22;370;48.810;9.150;2023-06-10T01:59:01;15.10;24.30
774;DHT22;370;48.810;9.150;2023-06-10T02:01:28;15.10;24.10
774;DHT22;370;48.810;9.150;2023-06-10T02:03:55;15.00;24.00
774;DHT22;370;48.810;9.150;2023-06-10T02:06:22;15.00;25.60
774;DHT22;370;48.810;9.150;2023-06-10T02:08:49;14.90;25.90
774;DHT22;370;48.810;9.150;2023-06-10T02:11:15;14.90;25.60
774;DHT22;370;48.810;9.150;2023-06-10T02:13:43;14.90;25.60
774;DHT22;370;48.810;9.150;2023-06-10T02:16:10;14.90;25.60
774;DHT22;370;48.810;9.150;2023-06-10T02:18:38;14.80;25.50
774;DHT22;370;48.810;9.150;2023-06-10T02:21:06;14.80;26.00
774;DHT22;370;48.810;9.150;2023-06-10T02:23:32;14.80;26.70
774;DHT22;370;48.810;9.150;2023-06-10T02:25:59;14.80;27.50
774;DHT22;370;48.810;9.150;2023-06-10T02:28:26;14.70;27.30
774;DHT22;370;48.810;9.150;2023-06-10T02:30:54;14.70;27.60
774;DHT22;370;48.810;9.150;2023-06-10T02:33:22;14.80;27.40
774;DHT22;370;48.810;9.150;2023-06-10T02:35:49;14.70;27.10
774;DHT22;370;48.810;9.150;2023-06-10T02:38:16;14.60;27.30
774;DHT22;370;48.810;9.150;2023-06-10T02:40:43;14.70;27.50
774;DHT22;370;48.810;9.150;2023-06-10T02:43:10;14.60;27.50
774;DHT22;370;48.810;9.150;2023-06-10T02:45:37;14.60;27.80
774;DHT22;370;48.810;9.150;2023-06-10T02:48:05;14.50;27.60
774;DHT22;370;48.810;9.150;2023-06-10T02:50:32;14.50;28.00
774;DHT22;370;48.810;9.150;2023-06-10T02:52:59;14.50;28.30
774;DHT22;370;48.810;9.150;2023-06-10T02:55:25;14.50;28.40
774;DHT22;370;48.810;9.150;2023-06-10T02:57:53;14.50;28.60
774;DHT22;370;48.810;9.150;2023-06-10T03:00:20;14.50;29.60
774;DHT22;370;48.810;9.150;2023-06-10T03:02:48;14.50;29.70
774;DHT22;370;48.810;9.150;2023-06-10T03:05:16;14.50;30.20
774;DHT22;370;48.810;9.150;2023-06-10T03:07:42;14.40;30.20
774;DHT22;370;48.810;9.150;2023-06-10T03:10:10;14.40;30.10
774;DHT22;370;48.810;9.150;2023-06-10T03:12:36;14.40;29.60
774;DHT22;370;48.810;9.150;2023-06-10T03:15:04;14.40;29.60
774;DHT22;370;48.810;9.150;2023-06-10T03:17:31;14.40;29.70
774;DHT22;370;48.810;9.150;2023-06-10T03:19:58;14.30;30.10
774;DHT22;370;48.810;9.150;2023-06-10T03:22:27;14.30;30.90
774;DHT22;370;48.810;9.150;2023-06-10T03:24:54;14.30;31.00
774;DHT22;370;48.810;9.150;2023-06-10T03:27:22;14.30;31.20
774;DHT22;370;48.810;9.150;2023-06-10T03:29:49;14.30;31.30
774;DHT22;370;48.810;9.150;2023-06-10T03:32:16;14.30;31.20
774;DHT22;370;48.810;9.150;2023-06-10T03:34:43;14.30;31.40
774;DHT22;370;48.810;9.150;2023-06-10T03:37:10;14.30;32.20
774;DHT22;370;48.810;9.150;2023-06-10T03:39:38;14.30;32.00
774;DHT22;370;48.810;9.150;2023-06-10T03:42:06;14.30;32.60
774;DHT22;370;48.810;9.150;2023-06-10T03:44:32;14.30;32.10
774;DHT22;370;48.810;9.150;2023-06-10T03:46:59;14.40;31.90
774;DHT22;370;48.810;9.150;2023-06-10T03:49:26;14.40;30.00
774;DHT22;370;48.810;9.150;2023-06-10T03:51:54;14.40;29.50
774;DHT22;370;48.810;9.150;2023-06-10T03:54:21;14.50;29.30
774;DHT22;370;48.810;9.150;2023-06-10T03:56:49;14.50;29.10
774;DHT22;370;48.810;9.150;2023-06-10T03:59:16;14.60;29.40
774;DHT22;370;48.810;9.150;2023-06-10T04:01:43;14.50;29.10
774;DHT22;370;48.810;9.150;2023-06-10T04:04:13;14.70;28.70
774;DHT22;370;48.810;9.150;2023-06-10T04:06:40;14.80;28.50
774;DHT22;370;48.810;9.150;2023-06-10T04:09:09;14.80;28.60
774;DHT22;370;48.810;9.150;2023-06-10T04:11:35;14.90;28.30
774;DHT22;370;48.810;9.150;2023-06-10T04:14:04;14.90;26.60
774;DHT22;370;48.810;9.150;2023-06-10T04:16:30;15.10;26.50
774;DHT22;370;48.810;9.150;2023-06-10T04:18:58;15.10;25.70
774;DHT22;370;48.810;9.150;2023-06-10T04:21:25;15.20;25.00
774;DHT22;370;48.810;9.150;2023-06-10T04:23:51;15.30;25.90
774;DHT22;370;48.810;9.150;2023-06-10T04:26:19;15.40;25.60
774;DHT22;370;48.810;9.150;2023-06-10T04:28:45;15.50;25.00
774;DHT22;370;48.810;9.150;2023-06-10T04:31:13;15.60;23.70
774;DHT22;370;48.810;9.150;2023-06-10T04:33:40;15.70;21.90
774;DHT22;370;48.810;9.150;2023-06-10T04:36:07;15.80;21.60
774;DHT22;370;48.810;9.150;2023-06-10T04:38:34;15.90;21.60
774;DHT22;370;48.810;9.150;2023-06-10T04:41:00;16.00;20.80
774;DHT22;370;48.810;9.150;2023-06-10T04:43:27;16.10;19.10
774;DHT22;370;48.810;9.150;2023-06-10T04:45:54;16.30;18.10
774;DHT22;370;48.810;9.150;2023-06-10T04:48:22;16.40;18.10
774;DHT22;370;48.810;9.150;2023-06-10T04:50:50;16.50;17.90
774;DHT22;370;48.810;9.150;2023-06-10T04:53:16;16.60;17.20
774;DHT22;370;48.810;9.150;2023-06-10T04:55:43;16.80;16.40
774;DHT22;370;48.810;9.150;2023-06-10T04:58:10;17.00;14.60
774;DHT22;370;48.810;9.150;2023-06-10T05:00:37;17.10;13.00
774;DHT22;370;48.810;9.150;2023-06-10T05:03:04;17.30;12.30
774;DHT22;370;48.810;9.150;2023-06-10T05:05:32;17.40;10.70
774;DHT22;370;48.810;9.150;2023-06-10T05:07:58;17.60;10.20
774;DHT22;370;48.810;9.150;2023-06-10T05:10:25;17.70;9.10
774;DHT22;370;48.810;9.150;2023-06-10T05:12:52;17.80;8.70
774;DHT22;370;48.810;9.150;2023-06-10T05:15:19;18.00;8.00
774;DHT22;370;48.810;9.150;2023-06-10T05:17:45;18.20;7.40
774;DHT22;370;48.810;9.150;2023-06-10T05:20:12;18.40;6.80
774;DHT22;370;48.810;9.150;2023-06-10T05:22:41;18.50;6.10
774;DHT22;370;48.810;9.150;2023-06-10T05:25:08;18.70;4.60
774;DHT22;370;48.810;9.150;2023-06-10T05:27:35;18.90;3.80
774;DHT22;370;48.810;9.150;2023-06-10T05:30:04;19.10;2.10
774;DHT22;370;48.810;9.150;2023-06-10T05:32:33;19.30;2.30
774;DHT22;370;48.810;9.150;2023-06-10T05:34:59;19.50;1.30
774;DHT22;370;48.810;9.150;2023-06-10T05:37:26;19.70;1.60
774;DHT22;370;48.810;9.150;2023-06-10T05:39:54;19.80;1.00
774;DHT22;370;48.810;9.150;2023-06-10T05:42:21;19.90;1.00
774;DHT22;370;48.810;9.150;2023-06-10T05:44:48;20.20;1.00
774;DHT22;370;48.810;9.150;2023-06-10T05:47:14;20.30;1.00
774;DHT22;370;48.810;9.150;2023-06-10T05:49:41;20.50;1.00
774;DHT22;370;48.810;9.150;2023-06-10T05:52:08;20.70;1.00
774;DHT22;370;48.810;9.150;2023-06-10T05:54:35;20.90;1.00
774;DHT22;370;48.810;9.150;2023-06-10T05:57:03;21.00;1.00
774;DHT22;370;48.810;9.150;2023-06-10T05:59:31;21.20;1.00
774;DHT22;370;48.810;9.150;2023-06-10T06:01:58;21.30;1.00
774;DHT22;370;48.810;9.150;2023-06-10T06:04:25;21.30;1.00
774;DHT22;370;48.810;9.150;2023-06-10T06:06:51;21.50;1.00
774;DHT22;370;48.810;9.150;2023-06-10T06:09:18;21.60;1.00
774;DHT22;370;48.810;9.150;2023-06-10T06:11:45;21.70;1.00
774;DHT22;370;48.810;9.150;2023-06-10T06:14:13;22.00;1.00
774;DHT22;370;48.810;9.150;2023-06-10T06:16:40;22.10;1.00
774;DHT22;370;48.810;9.150;2023-06-10T06:19:07;22.10;1.00
774;DHT22;370;48.810;9.150;2023-06-10T06:21:35;22.00;1.00
774;DHT22;370;48.810;9.150;2023-06-10T06:24:01;22.30;1.00
774;DHT22;370;48.810;9.150;2023-06-10T06:26:28;22.50;1.00
774;DHT22;370;48.810;9.150;2023-06-10T06:28:55;22.70;1.00
774;DHT22;370;48.810;9.150;2023-06-10T06:31:23;23.00;1.00
774;DHT22;370;48.810;9.150;2023-06-10T06:33:50;23.10;1.00
774;DHT22;370;48.810;9.150;2023-06-10T06:36:16;23.20;1.00
774;DHT22;370;48.810;9.150;2023-06-10T06:38:43;23.30;1.00
774;DHT22;370;48.810;9.150;2023-06-10T06:41:10;23.40;1.00
774;DHT22;370;48.810;9.150;2023-06-10T06:43:36;23.60;1.00
774;DHT22;370;48.810;9.150;2023-06-10T06:46:03;23.70;1.00
774;DHT22;370;48.810;9.150;2023-06-10T06:51:53;24.00;1.00
774;DHT22;370;48.810;9.150;2023-06-10T06:54:20;24.20;1.00
774;DHT22;370;48.810;9.150;2023-06-10T06:56:46;24.40;1.00
774;DHT22;370;48.810;9.150;2023-06-10T06:59:13;24.50;1.00
774;DHT22;370;48.810;9.150;2023-06-10T07:01:40;24.70;1.00
774;DHT22;370;48.810;9.150;2023-06-10T07:04:06;25.00;1.00
774;DHT22;370;48.810;9.150;2023-06-10T07:06:33;25.50;1.00
774;DHT22;370;48.810;9.150;2023-06-10T07:09:02;25.90;1.00
774;DHT22;370;48.810;9.150;2023-06-10T07:11:29;26.20;1.00
774;DHT22;370;48.810;9.150;2023-06-10T07:13:55;26.70;1.00
774;DHT22;370;48.810;9.150;2023-06-10T07:16:22;27.20;1.00
774;DHT22;370;48.810;9.150;2023-06-10T07:18:49;27.40;1.00
774;DHT22;370;48.810;9.150;2023-06-10T07:21:16;27.90;1.00
774;DHT22;370;48.810;9.150;2023-06-10T07:23:43;28.40;1.00
774;DHT22;370;48.810;9.150;2023-06-10T07:26:12;29.00;1.00
774;DHT22;370;48.810;9.150;2023-06-10T07:28:39;29.50;1.00
774;DHT22;370;48.810;9.150;2023-06-10T07:31:06;30.20;1.00
774;DHT22;370;48.810;9.150;2023-06-10T07:33:34;30.70;1.00
774;DHT22;370;48.810;9.150;2023-06-10T07:36:02;31.20;1.00
774;DHT22;370;48.810;9.150;2023-06-10T07:38:29;31.70;1.00
774;DHT22;370;48.810;9.150;2023-06-10T07:40:55;32.20;1.00
774;DHT22;370;48.810;9.150;2023-06-10T07:43:24;32.10;1.00
774;DHT22;370;48.810;9.150;2023-06-10T07:45:51;32.80;1.00
774;DHT22;370;48.810;9.150;2023-06-10T07:48:18;33.70;1.00
774;DHT22;370;48.810;9.150;2023-06-10T07:50:44;33.90;1.00
774;DHT22;370;48.810;9.150;2023-06-10T07:53:11;35.20;1.00
774;DHT22;370;48.810;9.150;2023-06-10T07:55:38;36.20;1.00
774;DHT22;370;48.810;9.150;2023-06-10T07:58:05;36.50;1.00
774;DHT22;370;48.810;9.150;2023-06-10T08:00:33;37.00;1.00
774;DHT22;370;48.810;9.150;2023-06-10T08:03:00;37.60;1.00
774;DHT22;370;48.810;9.150;2023-06-10T08:05:27;37.50;1.00
774;DHT22;370;48.810;9.150;2023-06-10T08:07:55;37.50;1.00
774;DHT22;370;48.810;9.150;2023-06-10T08:10:22;37.90;1.00
774;DHT22;370;48.810;9.150;2023-06-10T08:12:49;37.90;1.00
774;DHT22;370;48.810;9.150;2023-06-10T08:15:15;36.90;1.00
774;DHT22;370;48.810;9.150;2023-06-10T08:17:43;36.10;1.00
774;DHT22;370;48.810;9.150;2023-06-10T08:20:11;35.90;1.00
774;DHT22;370;48.810;9.150;2023-06-10T08:22:38;35.90;1.00
774;DHT22;370;48.810;9.150;2023-06-10T08:25:05;36.70;1.00
774;DHT22;370;48.810;9.150;2023-06-10T08:27:32;37.80;1.00
774;DHT22;370;48.810;9.150;2023-06-10T08:29:59;38.60;1.00
774;DHT22;370;48.810;9.150;2023-06-10T08:32:26;39.90;1.00
774;DHT22;370;48.810;9.150;2023-06-10T08:34:54;40.90;1.00
774;DHT22;370;48.810;9.150;2023-06-10T08:37:21;41.20;1.00
774;DHT22;370;48.810;9.150;2023-06-10T08:39:48;42.00;1.00
774;DHT22;370;48.810;9.150;2023-06-10T08:42:21;42.20;1.00
774;DHT22;370;48.810;9.150;2023-06-10T08:44:52;42.60;1.00
774;DHT22;370;48.810;9.150;2023-06-10T08:47:20;42.90;1.00
774;DHT22;370;48.810;9.150;2023-06-10T08:49:48;42.90;1.00
774;DHT22;370;48.810;9.150;2023-06-10T08:52:18;43.10;1.00
774;DHT22;370;48.810;9.150;2023-06-10T08:54:49;43.40;1.00
774;DHT22;370;48.810;9.150;2023-06-10T08:57:18;43.40;1.00
774;DHT22;370;48.810;9.150;2023-06-10T08:59:47;43.40;1.00
774;DHT22;370;48.810;9.150;2023-06-10T09:02:15;43.60;1.00
774;DHT22;370;48.810;9.150;2023-06-10T09:04:46;43.40;1.00
774;DHT22;370;48.810;9.150;2023-06-10T09:07:16;43.80;1.00
774;DHT22;370;48.810;9.150;2023-06-10T09:09:44;43.60;1.00
774;DHT22;370;48.810;9.150;2023-06-10T09:12:13;43.80;1.00
774;DHT22;370;48.810;9.150;2023-06-10T09:14:40;43.80;1.00
774;DHT22;370;48.810;9.150;2023-06-10T09:17:07;43.10;1.00
774;DHT22;370;48.810;9.150;2023-06-10T09:19:35;43.00;1.00
774;DHT22;370;48.810;9.150;2023-06-10T09:22:03;43.80;1.00
774;DHT22;370;48.810;9.150;2023-06-10T09:24:32;44.10;1.00
774;DHT22;370;48.810;9.150;2023-06-10T09:27:03;45.00;1.00
774;DHT22;370;48.810;9.150;2023-06-10T09:29:30;44.80;1.00
774;DHT22;370;48.810;9.150;2023-06-10T09:31:57;45.20;1.00
774;DHT22;370;48.810;9.150;2023-06-10T09:34:25;44.80;1.00
774;DHT22;370;48.810;9.150;2023-06-10T09:36:53;45.20;1.00
774;DHT22;370;48.810;9.150;2023-06-10T09:39:21;43.70;1.00
774;DHT22;370;48.810;9.150;2023-06-10T09:41:49;42.00;1.00
774;DHT22;370;48.810;9.150;2023-06-10T09:44:18;41.50;1.00
774;DHT22;370;48.810;9.150;2023-06-10T09:46:46;42.50;1.00
774;DHT22;370;48.810;9.150;2023-06-10T09:49:13;42.70;1.00
774;DHT22;370;48.810;9.150;2023-06-10T09:51:49;42.20;1.00
774;DHT22;370;48.810;9.150;2023-06-10T09:54:17;40.20;1.00
774;DHT22;370;48.810;9.150;2023-06-10T09:56:46;38.90;1.00
774;DHT22;370;48.810;9.150;2023-06-10T09:59:15;39.30;1.00
774;DHT22;370;48.810;9.150;2023-06-10T10:01:41;38.80;1.00
774;DHT22;370;48.810;9.150;2023-06-10T10:04:08;37.90;1.00
774;DHT22;370;48.810;9.150;2023-06-10T10:06:35;37.70;1.00
774;DHT22;370;48.810;9.150;2023-06-10T10:09:03;40.10;1.00
774;DHT22;370;48.810;9.150;2023-06-10T10:11:31;42.40;1.00
774;DHT22;370;48.810;9.150;2023-06-10T10:13:59;44.20;1.00
774;DHT22;370;48.810;9.150;2023-06-10T10:16:36;44.90;1.00
774;DHT22;370;48.810;9.150;2023-06-10T10:19:08;44.80;1.00
774;DHT22;370;48.810;9.150;2023-06-10T10:21:40;43.00;1.00
774;DHT22;370;48.810;9.150;2023-06-10T10:24:13;42.20;1.00
774;DHT22;370;48.810;9.150;2023-06-10T10:26:42;40.60;1.00
774;DHT22;370;48.810;9.150;2023-06-10T10:29:11;39.20;1.00
774;DHT22;370;48.810;9.150;2023-06-10T10:31:43;39.00;1.00
774;DHT22;370;48.810;9.150;2023-06-10T10:34:13;40.60;1.00
774;DHT22;370;48.810;9.150;2023-06-10T10:36:42;41.00;1.00
774;DHT22;370;48.810;9.150;2023-06-10T10:39:09;40.90;1.00
774;DHT22;370;48.810;9.150;2023-06-10T10:41:37;40.20;1.00
774;DHT22;370;48.810;9.150;2023-06-10T10:44:05;39.80;1.00
774;DHT22;370;48.810;9.150;2023-06-10T10:46:43;40.10;1.00
774;DHT22;370;48.810;9.150;2023-06-10T10:49:12;40.00;1.00
774;DHT22;370;48.810;9.150;2023-06-10T10:51:54;41.10;1.00
774;DHT22;370;48.810;9.150;2023-06-10T10:54:28;43.80;1.00
774;DHT22;370;48.810;9.150;2023-06-10T10:57:14;46.00;1.00
774;DHT22;370;48.810;9.150;2023-06-10T10:59:53;47.70;1.00
774;DHT22;370;48.810;9.150;2023-06-10T11:02:40;49.20;1.00
774;DHT22;370;48.810;9.150;2023-06-10T11:05:09;50.60;1.00
774;DHT22;370;48.810;9.150;2023-06-10T11:07:36;49.70;1.00
774;DHT22;370;48.810;9.150;2023-06-10T11:10:07;50.40;1.00
774;DHT22;370;48.810;9.150;2023-06-10T11:12:41;51.20;1.00
774;DHT22;370;48.810;9.150;2023-06-10T11:15:08;52.20;1.00
774;DHT22;370;48.810;9.150;2023-06-10T11:17:35;51.00;1.00
774;DHT22;370;48.810;9.150;2023-06-10T11:20:04;52.50;1.00
774;DHT22;370;48.810;9.150;2023-06-10T11:22:30;51.70;1.00
774;DHT22;370;48.810;9.150;2023-06-10T11:24:57;49.90;1.00
774;DHT22;370;48.810;9.150;2023-06-10T11:27:24;48.80;1.00
774;DHT22;370;48.810;9.150;2023-06-10T11:30:21;49.30;1.00
774;DHT22;370;48.810;9.150;2023-06-10T11:32:52;48.10;1.00
774;DHT22;370;48.810;9.150;2023-06-10T11:35:23;46.50;1.00
774;DHT22;370;48.810;9.150;2023-06-10T11:37:50;47.10;1.00
774;DHT22;370;48.810;9.150;2023-06-10T11:40:17;48.50;1.00
774;DHT22;370;48.810;9.150;2023-06-10T11:42:44;49.30;1.00
774;DHT22;370;48.810;9.150;2023-06-10T11:45:15;49.90;1.00
774;DHT22;370;48.810;9.150;2023-06-10T11:47:56;51.20;1.00
774;DHT22;370;48.810;9.150;2023-06-10T11:50:30;50.10;1.00
774;DHT22;370;48.810;9.150;2023-06-10T11:52:56;50.30;1.00
774;DHT22;370;48.810;9.150;2023-06-10T11:55:24;51.00;1.00
774;DHT22;370;48.810;9.150;2023-06-10T11:57:51;51.90;1.00
774;DHT22;370;48.810;9.150;2023-06-10T12:00:23;50.30;1.00
774;DHT22;370;48.810;9.150;2023-06-10T12:02:55;50.00;1.00
774;DHT22;370;48.810;9.150;2023-06-10T12:05:22;47.60;1.00
774;DHT22;370;48.810;9.150;2023-06-10T12:08:08;46.00;1.00
774;DHT22;370;48.810;9.150;2023-06-10T12:10:40;46.20;1.00
774;DHT22;370;48.810;9.150;2023-06-10T12:13:07;44.80;1.00
774;DHT22;370;48.810;9.150;2023-06-10T12:15:34;44.60;1.00
774;DHT22;370;48.810;9.150;2023-06-10T12:18:01;42.20;1.00
774;DHT22;370;48.810;9.150;2023-06-10T12:20:30;43.30;1.00
774;DHT22;370;48.810;9.150;2023-06-10T12:23:00;45.20;1.00
774;DHT22;370;48.810;9.150;2023-06-10T12:25:28;47.10;1.00
774;DHT22;370;48.810;9.150;2023-06-10T12:27:56;48.50;1.00
774;DHT22;370;48.810;9.150;2023-06-10T12:30:25;50.20;1.00
774;DHT22;370;48.810;9.150;2023-06-10T12:32:53;51.60;1.00
774;DHT22;370;48.810;9.150;2023-06-10T12:35:22;50.80;1.00
774;DHT22;370;48.810;9.150;2023-06-10T12:37:57;51.90;1.00
774;DHT22;370;48.810;9.150;2023-06-10T12:40:28;51.30;1.00
774;DHT22;370;48.810;9.150;2023-06-10T12:42:55;50.20;1.00
774;DHT22;370;48.810;9.150;2023-06-10T12:45:29;47.60;1.00
774;DHT22;370;48.810;9.150;2023-06-10T12:48:05;45.50;1.00
774;DHT22;370;48.810;9.150;2023-06-10T12:50:34;42.50;1.00
774;DHT22;370;48.810;9.150;2023-06-10T12:53:02;40.80;1.00
774;DHT22;370;48.810;9.150;2023-06-10T12:55:31;39.40;1.00
774;DHT22;370;48.810;9.150;2023-06-10T12:57:58;38.10;1.00
774;DHT22;370;48.810;9.150;2023-06-10T13:00:26;38.90;1.00
774;DHT22;370;48.810;9.150;2023-06-10T13:02:55;41.30;1.00
774;DHT22;370;48.810;9.150;2023-06-10T13:05:22;43.40;1.00
774;DHT22;370;48.810;9.150;2023-06-10T13:07:49;42.60;1.00
774;DHT22;370;48.810;9.150;2023-06-10T13:10:17;41.40;1.00
774;DHT22;370;48.810;9.150;2023-06-10T13:12:45;40.20;1.00
774;DHT22;370;48.810;9.150;2023-06-10T13:15:12;38.20;1.00
774;DHT22;370;48.810;9.150;2023-06-10T13:17:40;37.40;1.00
774;DHT22;370;48.810;9.150;2023-06-10T13:20:07;36.40;1.00
774;DHT22;370;48.810;9.150;2023-06-10T13:22:34;35.60;1.00
774;DHT22;370;48.810;9.150;2023-06-10T13:25:02;35.70;1.00
774;DHT22;370;48.810;9.150;2023-06-10T13:27:30;37.90;1.00
774;DHT22;370;48.810;9.150;2023-06-10T13:29:58;40.80;1.00
774;DHT22;370;48.810;9.150;2023-06-10T13:32:25;43.10;1.00
774;DHT22;370;48.810;9.150;2023-06-10T13:34:52;44.90;1.00
774;DHT22;370;48.810;9.150;2023-06-10T13:37:20;46.90;1.00
774;DHT22;370;48.810;9.150;2023-06-10T13:39:47;48.50;1.00
774;DHT22;370;48.810;9.150;2023-06-10T13:42:16;49.70;1.00
774;DHT22;370;48.810;9.150;2023-06-10T13:44:42;50.20;1.00
774;DHT22;370;48.810;9.150;2023-06-10T13:47:11;49.90;1.00
774;DHT22;370;48.810;9.150;2023-06-10T13:49:37;48.00;1.00
774;DHT22;370;48.810;9.150;2023-06-10T13:52:05;45.60;1.00
774;DHT22;370;48.810;9.150;2023-06-10T13:54:32;43.90;1.00
774;DHT22;370;48.810;9.150;2023-06-10T13:56:59;41.80;1.00
774;DHT22;370;48.810;9.150;2023-06-10T13:59:25;40.40;1.00
774;DHT22;370;48.810;9.150;2023-06-10T14:01:52;38.90;1.00
774;DHT22;370;48.810;9.150;2023-06-10T14:04:20;38.00;1.00
774;DHT22;370;48.810;9.150;2023-06-10T14:06:47;37.40;1.00
774;DHT22;370;48.810;9.150;2023-06-10T14:09:14;36.90;1.00
774;DHT22;370;48.810;9.150;2023-06-10T14:11:41;38.40;1.00
774;DHT22;370;48.810;9.150;2023-06-10T14:14:09;40.20;1.00
774;DHT22;370;48.810;9.150;2023-06-10T14:16:35;42.00;1.00
774;DHT22;370;48.810;9.150;2023-06-10T14:19:02;43.10;1.00
774;DHT22;370;48.810;9.150;2023-06-10T14:21:30;43.70;1.00
774;DHT22;370;48.810;9.150;2023-06-10T14:23:57;44.40;1.00
774;DHT22;370;48.810;9.150;2023-06-10T14:26:24;44.90;1.00
774;DHT22;370;48.810;9.150;2023-06-10T14:28:51;45.70;1.00
774;DHT22;370;48.810;9.150;2023-06-10T14:31:18;46.10;1.00
774;DHT22;370;48.810;9.150;2023-06-10T14:33:45;45.70;1.00
774;DHT22;370;48.810;9.150;2023-06-10T14:36:12;43.30;1.00
774;DHT22;370;48.810;9.150;2023-06-10T14:38:40;41.20;1.00
774;DHT22;370;48.810;9.150;2023-06-10T14:41:06;39.60;1.00
774;DHT22;370;48.810;9.150;2023-06-10T14:43:33;38.00;1.00
774;DHT22;370;48.810;9.150;2023-06-10T14:46:00;38.00;1.00
774;DHT22;370;48.810;9.150;2023-06-10T14:48:27;38.10;1.00
774;DHT22;370;48.810;9.150;2023-06-10T14:50:54;39.00;1.00
774;DHT22;370;48.810;9.150;2023-06-10T14:53:21;40.30;1.00
774;DHT22;370;48.810;9.150;2023-06-10T14:55:49;40.70;1.00
774;DHT22;370;48.810;9.150;2023-06-10T14:58:15;39.80;1.00
774;DHT22;370;48.810;9.150;2023-06-10T15:00:42;38.60;1.00
774;DHT22;370;48.810;9.150;2023-06-10T15:03:09;37.40;1.00
774;DHT22;370;48.810;9.150;2023-06-10T15:05:36;37.10;1.00
774;DHT22;370;48.810;9.150;2023-06-10T15:08:03;38.10;1.00
774;DHT22;370;48.810;9.150;2023-06-10T15:10:30;39.20;1.00
774;DHT22;370;48.810;9.150;2023-06-10T15:12:58;39.70;1.00
774;DHT22;370;48.810;9.150;2023-06-10T15:15:25;40.20;1.00
774;DHT22;370;48.810;9.150;2023-06-10T15:17:52;40.00;1.00
774;DHT22;370;48.810;9.150;2023-06-10T15:20:19;38.70;1.00
774;DHT22;370;48.810;9.150;2023-06-10T15:22:46;37.40;1.00
774;DHT22;370;48.810;9.150;2023-06-10T15:25:13;37.70;1.00
774;DHT22;370;48.810;9.150;2023-06-10T15:27:39;38.10;1.00
774;DHT22;370;48.810;9.150;2023-06-10T15:30:08;38.50;1.00
774;DHT22;370;48.810;9.150;2023-06-10T15:32:35;38.30;1.00
774;DHT22;370;48.810;9.150;2023-06-10T15:35:02;38.20;1.00
774;DHT22;370;48.810;9.150;2023-06-10T15:37:29;38.00;1.00
774;DHT22;370;48.810;9.150;2023-06-10T15:39:55;37.60;1.00
774;DHT22;370;48.810;9.150;2023-06-10T15:42:22;36.90;1.00
774;DHT22;370;48.810;9.150;2023-06-10T15:44:49;36.30;1.00
774;DHT22;370;48.810;9.150;2023-06-10T15:47:19;35.70;1.00
774;DHT22;370;48.810;9.150;2023-06-10T15:49:46;35.00;1.00
774;DHT22;370;48.810;9.150;2023-06-10T15:52:12;34.50;1.00
774;DHT22;370;48.810;9.150;2023-06-10T15:54:39;33.90;1.00
774;DHT22;370;48.810;9.150;2023-06-10T15:57:06;33.20;1.00
774;DHT22;370;48.810;9.150;2023-06-10T15:59:52;32.90;1.00
774;DHT22;370;48.810;9.150;2023-06-10T16:02:20;32.50;1.00
774;DHT22;370;48.810;9.150;2023-06-10T16:04:47;32.30;1.00
774;DHT22;370;48.810;9.150;2023-06-10T16:07:13;32.00;1.00
774;DHT22;370;48.810;9.150;2023-06-10T16:09:40;31.80;1.00
774;DHT22;370;48.810;9.150;2023-06-10T16:12:07;31.60;1.00
774;DHT22;370;48.810;9.150;2023-06-10T16:14:34;31.40;1.00
774;DHT22;370;48.810;9.150;2023-06-10T16:17:01;31.20;1.00
774;DHT22;370;48.810;9.150;2023-06-10T16:19:29;31.10;1.00
774;DHT22;370;48.810;9.150;2023-06-10T16:21:56;31.00;1.00
774;DHT22;370;48.810;9.150;2023-06-10T16:24:22;30.80;1.00
774;DHT22;370;48.810;9.150;2023-06-10T16:26:49;30.70;1.00
774;DHT22;370;48.810;9.150;2023-06-10T16:29:16;30.60;1.00
774;DHT22;370;48.810;9.150;2023-06-10T16:31:43;30.60;1.00
774;DHT22;370;48.810;9.150;2023-06-10T16:34:09;30.60;1.00
774;DHT22;370;48.810;9.150;2023-06-10T16:36:38;30.40;1.00
774;DHT22;370;48.810;9.150;2023-06-10T16:39:04;30.40;1.00
774;DHT22;370;48.810;9.150;2023-06-10T16:41:31;30.50;1.00
774;DHT22;370;48.810;9.150;2023-06-10T16:43:58;30.60;1.00
774;DHT22;370;48.810;9.150;2023-06-10T16:46:25;30.50;1.00
774;DHT22;370;48.810;9.150;2023-06-10T16:48:53;30.40;1.00
774;DHT22;370;48.810;9.150;2023-06-10T16:51:20;30.50;1.00
774;DHT22;370;48.810;9.150;2023-06-10T16:53:48;30.50;1.00